Time;durP1;ratioP1;P1;durP2;ratioP2;P2;SDS_P1;SDS_P2;PMS_P1;PMS_P2;Temp;Humidity;BMP_temperature;BMP_pressure;BME280_temperature;BME280_humidity;BME280_pressure;Samples;Min_cycle;Max_cycle;Signal;HPM_P1;HPM_P2
2022/07/17 00:01:28;;;;;;;2.40;1.13;;;;;;;15.55;46.84;102387.88;4940976;28;96992;-49
2022/07/17 00:03:53;;;;;;;3.57;1.07;;;;;;;15.55;46.85;102394.16;4949942;28;101975;-48
2022/07/17 00:06:19;;;;;;;2.70;0.83;;;;;;;15.56;46.99;102403.25;4944612;28;97566;-48
2022/07/17 00:08:44;;;;;;;1.37;1.03;;;;;;;15.52;46.83;102395.13;4945285;28;97238;-51
2022/07/17 00:11:10;;;;;;;1.70;0.87;;;;;;;15.48;47.00;102399.38;4946684;28;102218;-48
2022/07/17 00:13:35;;;;;;;2.10;0.73;;;;;;;15.46;47.04;102399.09;4942949;28;97011;-48
2022/07/17 00:16:00;;;;;;;0.90;0.90;;;;;;;15.39;47.08;102400.22;4948071;28;97394;-49
2022/07/17 00:18:26;;;;;;;1.27;0.97;;;;;;;15.41;47.13;102403.28;4945247;28;97327;-49
2022/07/17 00:20:51;;;;;;;2.37;0.90;;;;;;;15.40;47.14;102400.97;4945519;28;97219;-49
2022/07/17 00:23:17;;;;;;;1.37;0.80;;;;;;;15.38;47.20;102398.69;4948391;28;97101;-50
2022/07/17 00:25:42;;;;;;;0.70;0.60;;;;;;;15.36;47.37;102403.19;4942843;28;96841;-48
2022/07/17 00:28:08;;;;;;;2.30;0.97;;;;;;;15.32;47.45;102397.09;4946398;28;97158;-49
2022/07/17 00:30:33;;;;;;;1.40;0.80;;;;;;;15.29;47.44;102393.25;4944590;28;97404;-49
2022/07/17 00:32:58;;;;;;;2.00;1.00;;;;;;;15.28;47.39;102407.63;4949851;28;97247;-49
2022/07/17 00:35:24;;;;;;;1.73;1.13;;;;;;;15.25;47.64;102398.25;4949436;28;97201;-50
2022/07/17 00:37:51;;;;;;;6.40;1.70;;;;;;;15.22;47.68;102402.00;4947887;28;96952;-49
2022/07/17 00:40:20;;;;;;;1.83;1.73;;;;;;;15.19;47.57;102402.97;4948579;28;97270;-49
2022/07/17 00:42:46;;;;;;;1.67;1.57;;;;;;;15.15;47.68;102409.94;4947904;28;96735;-49
2022/07/17 00:45:12;;;;;;;1.73;1.57;;;;;;;15.11;47.79;102406.59;4949627;28;96807;-50
2022/07/17 00:47:56;;;;;;;3.20;2.27;;;;;;;15.08;48.44;102400.00;4946404;28;97060;-49
2022/07/17 00:50:23;;;;;;;4.17;2.43;;;;;;;15.02;47.81;102405.50;4947776;28;97363;-50
2022/07/17 00:52:49;;;;;;;1.97;1.70;;;;;;;14.94;47.83;102396.00;4948168;28;97397;-49
2022/07/17 00:55:16;;;;;;;2.60;1.90;;;;;;;14.92;47.96;102397.75;4947271;28;96990;-49
2022/07/17 00:57:42;;;;;;;2.77;1.70;;;;;;;14.90;48.02;102397.47;4947206;28;98061;-51
2022/07/17 01:00:10;;;;;;;1.93;1.80;;;;;;;14.87;48.13;102392.88;4947243;28;96929;-48
2022/07/17 01:02:37;;;;;;;3.07;1.73;;;;;;;14.86;48.08;102399.66;4947518;28;97357;-48
2022/07/17 01:05:03;;;;;;;2.47;1.57;;;;;;;14.82;48.13;102397.09;4949225;28;97544;-51
2022/07/17 01:07:29;;;;;;;2.63;1.80;;;;;;;14.79;48.15;102395.28;4946093;28;97418;-49
2022/07/17 01:09:54;;;;;;;1.63;1.53;;;;;;;14.76;48.17;102401.78;4946405;28;97524;-49
2022/07/17 01:12:20;;;;;;;2.40;1.30;;;;;;;14.72;48.22;102403.97;4947774;28;97384;-49
2022/07/17 01:14:47;;;;;;;2.03;1.83;;;;;;;14.69;48.31;102407.72;4949294;28;97120;-49
2022/07/17 01:17:12;;;;;;;3.43;1.70;;;;;;;14.65;48.29;102400.84;4947451;28;97148;-50
2022/07/17 01:19:37;;;;;;;1.77;1.50;;;;;;;14.62;48.31;102402.53;4948678;28;96948;-49
2022/07/17 01:22:03;;;;;;;1.33;1.23;;;;;;;14.58;48.45;102407.53;4948642;28;97333;-49
2022/07/17 01:24:28;;;;;;;1.53;0.90;;;;;;;14.56;48.35;102406.47;4928332;28;97432;-49
2022/07/17 01:26:53;;;;;;;1.67;1.40;;;;;;;14.50;48.42;102409.16;4947291;28;96963;-49
2022/07/17 01:29:19;;;;;;;1.10;1.00;;;;;;;14.43;48.50;102406.75;4949475;28;97163;-49
2022/07/17 01:31:45;;;;;;;1.53;1.30;;;;;;;14.40;48.59;102404.16;4945709;28;102470;-50
2022/07/17 01:34:14;;;;;;;2.07;1.37;;;;;;;14.38;48.74;102406.63;4948786;28;97587;-50
2022/07/17 01:36:40;;;;;;;1.50;1.30;;;;;;;14.35;48.75;102402.81;4945932;28;96685;-49
2022/07/17 01:39:06;;;;;;;2.03;1.30;;;;;;;14.30;48.69;102408.25;4946655;28;97337;-50
2022/07/17 01:41:32;;;;;;;1.20;1.10;;;;;;;14.26;48.73;102409.16;4947307;28;96807;-49
2022/07/17 01:43:58;;;;;;;1.07;0.90;;;;;;;14.23;48.92;102410.13;4948432;28;97052;-49
2022/07/17 01:46:24;;;;;;;3.50;1.00;;;;;;;14.22;48.89;102414.13;4947420;28;96948;-49
2022/07/17 01:48:50;;;;;;;1.37;1.00;;;;;;;14.20;49.08;102411.06;4948845;28;96935;-49
2022/07/17 01:51:15;;;;;;;2.70;1.07;;;;;;;14.16;48.98;102407.72;4947257;28;98036;-49
2022/07/17 01:53:40;;;;;;;1.43;1.20;;;;;;;14.14;49.15;102401.13;4947350;28;104167;-49
2022/07/17 01:56:06;;;;;;;0.93;0.80;;;;;;;14.10;48.92;102406.88;4948036;28;97157;-49
2022/07/17 01:58:31;;;;;;;1.90;1.00;;;;;;;14.08;49.13;102412.09;4946635;28;98611;-49
2022/07/17 02:00:57;;;;;;;2.40;0.97;;;;;;;14.06;49.24;102408.28;4947959;28;97269;-49
2022/07/17 02:03:22;;;;;;;1.60;1.40;;;;;;;14.01;49.32;102406.16;4949248;28;97048;-49
2022/07/17 02:05:48;;;;;;;1.30;1.20;;;;;;;13.97;49.05;102409.13;4942949;28;97261;-49
2022/07/17 02:08:13;;;;;;;1.53;1.00;;;;;;;13.92;49.27;102403.47;4951097;28;96949;-49
2022/07/17 02:10:38;;;;;;;2.10;1.07;;;;;;;13.87;49.26;102404.88;4945225;28;97295;-48
2022/07/17 02:13:04;;;;;;;3.10;1.07;;;;;;;13.85;49.42;102412.88;4947180;28;97099;-50
2022/07/17 02:15:30;;;;;;;2.40;1.60;;;;;;;13.83;49.58;102411.81;4945526;28;97110;-49
2022/07/17 02:17:55;;;;;;;1.20;1.10;;;;;;;13.80;49.49;102401.72;4943497;28;97433;-48
2022/07/17 02:20:21;;;;;;;1.40;1.30;;;;;;;13.79;49.60;102408.47;4945464;28;97356;-50
2022/07/17 02:22:46;;;;;;;2.20;1.30;;;;;;;13.78;49.71;102406.97;4944611;28;96911;-49
2022/07/17 02:25:12;;;;;;;2.30;0.87;;;;;;;13.76;49.63;102412.94;4951115;28;96884;-49
2022/07/17 02:27:39;;;;;;;3.57;1.13;;;;;;;13.76;49.56;102415.72;4947748;28;96930;-49
2022/07/17 02:30:08;;;;;;;1.43;0.70;;;;;;;13.76;49.58;102410.19;4948721;28;98116;-49
2022/07/17 02:32:33;;;;;;;1.50;0.90;;;;;;;13.74;49.47;102409.16;4930419;28;97129;-50
2022/07/17 02:34:59;;;;;;;1.33;0.80;;;;;;;13.72;49.60;102408.81;4944055;28;97019;-49
2022/07/17 02:37:24;;;;;;;3.47;1.03;;;;;;;13.67;49.49;102406.72;4945987;28;102248;-49
2022/07/17 02:39:52;;;;;;;0.80;0.80;;;;;;;13.62;49.84;102405.38;4945829;28;97016;-50
2022/07/17 02:42:25;;;;;;;1.23;0.90;;;;;;;13.59;49.89;102411.84;4945452;28;97464;-48
2022/07/17 02:44:51;;;;;;;3.37;1.00;;;;;;;13.58;49.82;102404.78;4946019;28;96817;-49
2022/07/17 02:47:28;;;;;;;2.70;1.00;;;;;;;13.60;50.18;102410.59;4946432;28;97200;-49
2022/07/17 02:49:54;;;;;;;0.87;0.87;;;;;;;13.58;49.90;102421.38;4949735;28;97882;-48
2022/07/17 02:52:19;;;;;;;1.90;1.03;;;;;;;13.57;49.93;102419.06;4943197;28;97023;-49
2022/07/17 02:54:45;;;;;;;4.00;1.10;;;;;;;13.52;49.80;102421.25;4945809;28;96711;-49
2022/07/17 02:57:12;;;;;;;1.37;0.83;;;;;;;13.48;49.84;102428.94;4943507;28;97132;-49
2022/07/17 02:59:38;;;;;;;2.80;1.00;;;;;;;13.46;49.93;102430.66;4946415;28;97371;-48
2022/07/17 03:02:04;;;;;;;2.60;1.20;;;;;;;13.44;50.02;102431.13;4946988;28;97158;-50
2022/07/17 03:04:29;;;;;;;0.90;0.70;;;;;;;13.42;49.95;102430.84;4942973;28;97744;-49
2022/07/17 03:06:55;;;;;;;1.23;0.97;;;;;;;13.39;49.94;102433.75;4946636;28;96904;-50
2022/07/17 03:09:20;;;;;;;1.10;0.93;;;;;;;13.29;50.13;102441.34;4948973;28;97331;-53
2022/07/17 03:11:45;;;;;;;0.70;0.70;;;;;;;13.27;50.23;102434.75;4946266;28;96781;-49
2022/07/17 03:14:11;;;;;;;2.60;1.10;;;;;;;13.22;50.08;102444.44;4952838;28;97339;-50
2022/07/17 03:16:36;;;;;;;0.80;0.80;;;;;;;13.15;50.25;102439.25;4944844;28;103435;-50
2022/07/17 03:19:01;;;;;;;0.90;0.73;;;;;;;13.15;50.23;102439.25;4945655;28;97188;-50
2022/07/17 03:21:27;;;;;;;1.30;1.20;;;;;;;13.14;50.44;102442.47;4945682;28;97257;-49
2022/07/17 03:23:52;;;;;;;1.23;0.80;;;;;;;13.10;50.38;102445.41;4946985;28;97600;-49
2022/07/17 03:26:17;;;;;;;1.23;0.90;;;;;;;13.09;50.50;102445.84;4943292;28;97161;-50
2022/07/17 03:28:43;;;;;;;0.90;0.90;;;;;;;13.05;50.57;102450.78;4946002;28;97323;-49
2022/07/17 03:31:08;;;;;;;1.90;1.17;;;;;;;13.01;50.57;102450.16;4948585;28;97293;-50
2022/07/17 03:33:33;;;;;;;1.70;0.90;;;;;;;12.99;50.38;102452.63;4945891;28;97077;-49
2022/07/17 03:35:59;;;;;;;2.07;0.93;;;;;;;12.95;50.52;102452.03;4944499;28;97042;-49
2022/07/17 03:38:24;;;;;;;3.30;0.80;;;;;;;12.88;50.29;102455.88;4946367;28;97355;-49
2022/07/17 03:40:50;;;;;;;0.80;0.70;;;;;;;12.87;50.67;102464.63;4945786;28;97045;-48
2022/07/17 03:43:15;;;;;;;0.80;0.80;;;;;;;12.88;50.52;102464.19;4946115;28;96714;-49
2022/07/17 03:45:41;;;;;;;4.20;1.10;;;;;;;12.81;50.66;102453.44;4946178;28;97286;-49
2022/07/17 03:48:07;;;;;;;1.60;1.13;;;;;;;12.79;50.48;102453.91;4938358;28;98257;-49
2022/07/17 03:50:32;;;;;;;2.90;1.03;;;;;;;12.82;50.64;102446.66;4943912;28;97108;-50
2022/07/17 03:52:58;;;;;;;3.00;1.40;;;;;;;12.84;50.65;102452.53;4946200;28;96682;-51
2022/07/17 03:55:23;;;;;;;1.80;0.80;;;;;;;12.83;50.16;102462.03;4944055;28;97183;-49
2022/07/17 03:57:48;;;;;;;1.00;1.00;;;;;;;12.77;50.78;102458.38;4944100;28;97587;-49
2022/07/17 04:00:14;;;;;;;2.47;0.73;;;;;;;12.73;50.86;102460.53;4945511;28;96826;-50
2022/07/17 04:02:40;;;;;;;1.20;0.77;;;;;;;12.75;50.90;102460.81;4926762;28;96932;-49
2022/07/17 04:05:09;;;;;;;2.00;0.70;;;;;;;12.79;50.76;102453.91;4945485;28;97187;-48
2022/07/17 04:07:38;;;;;;;1.10;1.00;;;;;;;12.82;50.82;102449.44;4943047;28;101955;-48
2022/07/17 04:10:04;;;;;;;0.77;0.77;;;;;;;12.84;50.68;102433.19;4945541;28;96663;-48
2022/07/17 04:12:30;;;;;;;1.03;0.87;;;;;;;12.84;50.98;102424.91;4945177;28;97432;-48
2022/07/17 04:14:55;;;;;;;1.17;0.97;;;;;;;12.81;50.95;102423.06;4944509;28;97959;-50
2022/07/17 04:17:21;;;;;;;7.17;0.80;;;;;;;12.82;51.06;102426.59;4944094;28;97384;-49
2022/07/17 04:19:47;;;;;;;1.13;1.00;;;;;;;12.81;51.14;102434.09;4942565;28;96807;-49
2022/07/17 04:22:12;;;;;;;3.43;1.40;;;;;;;12.80;51.19;102435.31;4944329;28;97065;-49
2022/07/17 04:24:38;;;;;;;0.90;0.90;;;;;;;12.81;51.24;102436.88;4944001;28;97006;-50
2022/07/17 04:27:04;;;;;;;1.03;0.93;;;;;;;12.86;51.22;102447.31;4940935;28;97015;-47
2022/07/17 04:29:29;;;;;;;1.43;1.20;;;;;;;12.90;51.17;102458.94;4945467;28;96982;-48
2022/07/17 04:31:54;;;;;;;0.90;0.90;;;;;;;12.91;51.19;102463.22;4943291;28;96874;-49
2022/07/17 04:34:20;;;;;;;0.77;0.77;;;;;;;12.94;51.32;102481.66;4943938;28;97090;-48
2022/07/17 04:36:45;;;;;;;2.67;1.33;;;;;;;12.98;51.14;102482.25;4942332;28;96868;-49
2022/07/17 04:39:10;;;;;;;1.33;1.13;;;;;;;13.02;51.53;102488.38;4942419;28;97481;-47
2022/07/17 04:41:36;;;;;;;1.00;1.00;;;;;;;13.07;51.24;102487.00;4944880;28;96967;-49
2022/07/17 04:44:01;;;;;;;4.00;0.90;;;;;;;13.12;51.36;102473.34;4945173;28;101938;-49
2022/07/17 04:46:26;;;;;;;1.17;1.07;;;;;;;13.17;51.48;102475.47;4940638;28;99235;-49
2022/07/17 04:48:52;;;;;;;1.20;1.00;;;;;;;13.22;51.58;102485.13;4945042;28;97169;-50
2022/07/17 04:51:17;;;;;;;1.93;1.37;;;;;;;13.24;51.49;102491.72;4926521;28;97042;-49
2022/07/17 04:53:42;;;;;;;1.60;0.70;;;;;;;13.34;51.37;102479.41;4944811;28;96939;-49
2022/07/17 04:56:08;;;;;;;2.17;1.00;;;;;;;13.41;51.46;102481.81;4944017;28;96923;-48
2022/07/17 04:58:33;;;;;;;1.90;0.90;;;;;;;13.49;51.37;102474.75;4940742;28;97589;-49
2022/07/17 05:00:58;;;;;;;3.17;1.10;;;;;;;13.58;51.54;102481.44;4945856;28;96847;-47
2022/07/17 05:03:24;;;;;;;1.47;0.57;;;;;;;13.65;51.61;102470.06;4944687;28;97025;-50
2022/07/17 05:05:49;;;;;;;1.53;0.80;;;;;;;13.70;51.55;102466.63;4945445;28;98110;-49
2022/07/17 05:08:16;;;;;;;1.50;0.90;;;;;;;13.76;51.64;102464.75;4943220;28;97151;-48
2022/07/17 05:10:41;;;;;;;1.73;0.90;;;;;;;13.81;51.64;102458.56;4943519;28;97228;-50
2022/07/17 05:13:07;;;;;;;0.80;0.80;;;;;;;13.89;51.63;102454.22;4944953;28;96885;-50
2022/07/17 05:15:32;;;;;;;2.80;1.40;;;;;;;13.96;51.60;102467.69;4942189;28;97121;-49
2022/07/17 05:17:57;;;;;;;4.57;1.27;;;;;;;14.02;51.65;102474.88;4948442;28;96834;-47
2022/07/17 05:20:23;;;;;;;1.30;1.00;;;;;;;14.09;51.79;102473.75;4946785;28;97288;-48
2022/07/17 05:22:48;;;;;;;1.40;1.03;;;;;;;14.16;51.87;102479.69;4947248;28;97608;-48
2022/07/17 05:25:13;;;;;;;1.90;0.90;;;;;;;14.23;51.72;102470.28;4950533;28;96829;-49
2022/07/17 05:27:39;;;;;;;1.93;1.10;;;;;;;14.28;51.85;102473.13;4942436;28;105229;-51
2022/07/17 05:30:05;;;;;;;1.17;0.87;;;;;;;14.36;51.80;102476.34;4942481;28;97192;-49
2022/07/17 05:32:30;;;;;;;1.07;0.90;;;;;;;14.42;51.91;102471.66;4947392;28;96851;-50
2022/07/17 05:34:55;;;;;;;3.70;1.17;;;;;;;14.49;51.92;102476.84;4944993;28;102876;-49
2022/07/17 05:37:21;;;;;;;2.00;1.00;;;;;;;14.55;52.06;102477.72;4947896;28;97387;-49
2022/07/17 05:39:46;;;;;;;5.47;1.23;;;;;;;14.62;51.72;102474.56;4944453;28;96972;-50
2022/07/17 05:42:11;;;;;;;3.60;1.03;;;;;;;14.68;51.92;102467.13;4951121;28;97071;-48
2022/07/17 05:44:37;;;;;;;2.23;1.10;;;;;;;14.74;51.98;102472.78;4946883;28;97342;-48
2022/07/17 05:47:02;;;;;;;1.97;1.00;;;;;;;14.80;51.89;102474.41;4946452;28;97307;-49
2022/07/17 05:49:27;;;;;;;4.20;1.40;;;;;;;14.87;52.02;102482.31;4946533;28;97617;-49
2022/07/17 05:51:53;;;;;;;2.80;1.20;;;;;;;14.95;51.96;102485.47;4945704;28;97259;-48
2022/07/17 05:54:18;;;;;;;1.37;1.07;;;;;;;15.01;52.00;102489.88;4942442;28;97049;-49
2022/07/17 05:56:43;;;;;;;1.00;0.90;;;;;;;15.12;52.09;102488.53;4944116;28;97291;-48
2022/07/17 05:59:09;;;;;;;1.03;0.73;;;;;;;15.20;52.04;102498.00;4947449;28;96806;-49
2022/07/17 06:01:34;;;;;;;1.40;1.03;;;;;;;15.29;51.93;102492.34;4947131;28;96978;-49
2022/07/17 06:03:59;;;;;;;1.43;1.10;;;;;;;15.37;52.08;102490.72;4944890;28;98221;-49
2022/07/17 06:06:25;;;;;;;1.43;0.70;;;;;;;15.49;52.25;102489.66;4947370;28;97106;-49
2022/07/17 06:08:50;;;;;;;2.43;0.90;;;;;;;15.58;51.84;102492.31;4945244;28;104419;-48
2022/07/17 06:11:15;;;;;;;1.50;0.90;;;;;;;15.66;52.00;102480.31;4948282;28;97102;-48
2022/07/17 06:13:40;;;;;;;3.70;1.10;;;;;;;15.73;51.87;102491.03;4946413;28;96792;-49
2022/07/17 06:16:06;;;;;;;2.10;0.87;;;;;;;15.84;52.02;102476.53;4945433;28;97031;-49
2022/07/17 06:18:31;;;;;;;3.30;1.10;;;;;;;15.94;51.90;102482.72;4945807;28;96968;-48
2022/07/17 06:20:57;;;;;;;3.00;0.87;;;;;;;16.03;51.82;102483.34;4945163;28;97028;-49
2022/07/17 06:23:23;;;;;;;1.83;1.07;;;;;;;16.14;51.88;102485.50;4944290;28;97361;-49
2022/07/17 06:25:48;;;;;;;3.20;1.37;;;;;;;16.25;51.84;102478.06;4946880;28;96889;-49
2022/07/17 06:28:13;;;;;;;2.33;1.00;;;;;;;16.33;51.76;102490.28;4947597;28;97230;-50
2022/07/17 06:30:39;;;;;;;2.43;1.07;;;;;;;16.44;51.72;102484.84;4950527;28;97027;-49
2022/07/17 06:33:04;;;;;;;2.30;1.17;;;;;;;16.53;51.65;102497.84;4943772;28;97355;-49
2022/07/17 06:35:30;;;;;;;1.97;0.90;;;;;;;16.63;51.64;102495.66;4951101;28;97927;-49
2022/07/17 06:37:58;;;;;;;3.63;1.30;;;;;;;16.76;51.54;102499.59;4944304;28;99547;-49
2022/07/17 06:40:24;;;;;;;1.87;0.80;;;;;;;16.84;51.35;102495.13;4947129;28;97338;-52
2022/07/17 06:42:49;;;;;;;2.30;1.30;;;;;;;16.91;51.37;102491.91;4948077;28;97525;-49
2022/07/17 06:45:14;;;;;;;3.33;1.40;;;;;;;16.99;51.30;102495.75;4942680;28;97235;-49
2022/07/17 06:47:40;;;;;;;5.77;1.20;;;;;;;17.01;51.06;102490.50;4948215;28;96868;-49
2022/07/17 06:50:06;;;;;;;3.33;1.00;;;;;;;17.04;51.06;102497.84;4948916;28;97348;-48
2022/07/17 06:52:31;;;;;;;1.13;0.80;;;;;;;17.11;51.33;102499.41;4944318;28;97233;-48
2022/07/17 06:54:57;;;;;;;3.23;0.90;;;;;;;17.20;51.21;102505.56;4943218;28;97161;-49
2022/07/17 06:57:22;;;;;;;3.03;1.00;;;;;;;17.29;51.27;102512.19;4944860;28;96925;-49
2022/07/17 06:59:48;;;;;;;1.43;1.00;;;;;;;17.38;51.19;102498.88;4948451;28;96942;-49
2022/07/17 07:02:14;;;;;;;1.83;0.97;;;;;;;17.52;51.29;102508.34;4946689;28;97531;-50
2022/07/17 07:04:40;;;;;;;1.13;0.80;;;;;;;17.66;51.03;102511.00;4945518;28;96745;-48
2022/07/17 07:07:05;;;;;;;1.40;0.97;;;;;;;17.82;51.08;102506.78;4945754;28;96748;-49
2022/07/17 07:09:30;;;;;;;3.70;1.27;;;;;;;17.98;50.90;102509.66;4945442;28;96975;-50
2022/07/17 07:11:56;;;;;;;1.90;0.93;;;;;;;18.13;50.74;102503.88;4949109;28;97432;-49
2022/07/17 07:14:21;;;;;;;3.63;1.10;;;;;;;18.25;50.79;102493.53;4947072;28;97249;-50
2022/07/17 07:16:47;;;;;;;0.93;0.87;;;;;;;18.37;50.54;102506.28;4941200;28;97042;-47
2022/07/17 07:19:13;;;;;;;3.47;0.83;;;;;;;18.43;50.40;102516.16;4945437;28;96848;-49
2022/07/17 07:21:38;;;;;;;1.80;0.70;;;;;;;18.44;50.13;102511.34;4948766;28;97000;-49
2022/07/17 07:24:04;;;;;;;1.90;0.70;;;;;;;18.47;50.21;102504.78;4948648;28;97175;-49
2022/07/17 07:26:29;;;;;;;2.30;1.07;;;;;;;18.50;50.31;102515.69;4946278;28;97341;-49
2022/07/17 07:28:55;;;;;;;2.90;0.90;;;;;;;18.62;50.18;102510.91;4946239;28;96930;-49
2022/07/17 07:31:20;;;;;;;4.27;1.10;;;;;;;18.77;50.31;102514.25;4946239;28;96710;-49
2022/07/17 07:33:46;;;;;;;4.03;0.90;;;;;;;18.92;49.97;102514.75;4944730;28;97358;-49
2022/07/17 07:36:11;;;;;;;2.50;0.70;;;;;;;19.04;49.76;102521.88;4949365;28;96721;-49
2022/07/17 07:38:37;;;;;;;3.87;1.20;;;;;;;19.09;49.41;102523.91;4945327;28;96945;-49
2022/07/17 07:41:03;;;;;;;2.13;0.70;;;;;;;19.12;49.54;102534.06;4945058;28;97256;-49
2022/07/17 07:43:29;;;;;;;2.27;0.87;;;;;;;19.17;49.34;102524.16;4944324;28;97313;-49
2022/07/17 07:45:54;;;;;;;1.20;0.70;;;;;;;19.20;49.34;102523.13;4946043;28;97095;-49
2022/07/17 07:48:19;;;;;;;2.10;0.57;;;;;;;19.24;49.16;102521.63;4946832;28;97084;-49
2022/07/17 07:50:45;;;;;;;5.03;0.80;;;;;;;19.31;49.20;102529.50;4944979;28;96751;-49
2022/07/17 07:53:10;;;;;;;1.83;0.60;;;;;;;19.38;49.10;102528.25;4943662;28;98124;-49
2022/07/17 07:55:35;;;;;;;4.07;0.97;;;;;;;19.44;49.06;102532.56;4945773;28;96588;-50
2022/07/17 07:58:12;;;;;;;2.00;0.70;;;;;;;19.56;48.95;102532.53;4943756;28;110528;-49
2022/07/17 08:00:39;;;;;;;1.63;0.80;;;;;;;19.68;48.93;102528.47;4945033;28;102234;-50
2022/07/17 08:03:06;;;;;;;3.33;0.87;;;;;;;19.79;48.89;102534.06;4942123;28;97241;-50
2022/07/17 08:05:32;;;;;;;5.40;1.03;;;;;;;19.90;48.83;102536.78;4944906;28;97794;-49
2022/07/17 08:07:57;;;;;;;3.47;0.90;;;;;;;19.98;48.55;102537.81;4944950;28;97005;-49
2022/07/17 08:10:23;;;;;;;3.33;0.83;;;;;;;20.00;48.48;102543.63;4943736;28;96818;-50
2022/07/17 08:12:48;;;;;;;4.30;1.13;;;;;;;20.05;48.38;102551.25;4945276;28;96979;-50
2022/07/17 08:15:20;;;;;;;3.37;1.20;;;;;;;20.10;48.35;102556.03;4948837;28;96980;-49
2022/07/17 08:17:49;;;;;;;1.53;0.90;;;;;;;20.15;48.27;102555.28;4933597;28;97593;-50
2022/07/17 08:20:15;;;;;;;5.77;0.97;;;;;;;20.25;48.46;102562.13;4934211;28;100743;-49
2022/07/17 08:22:44;;;;;;;1.83;0.80;;;;;;;20.39;47.93;102554.69;4943189;28;96817;-50
2022/07/17 08:25:10;;;;;;;2.00;0.70;;;;;;;20.47;47.84;102552.88;4944850;28;97202;-50
2022/07/17 08:27:36;;;;;;;2.20;0.73;;;;;;;20.51;47.71;102559.72;4944830;28;97268;-47
2022/07/17 08:30:03;;;;;;;1.40;0.67;;;;;;;20.57;47.76;102551.31;4945501;28;97374;-49
2022/07/17 08:32:28;;;;;;;2.10;1.07;;;;;;;20.65;47.52;102555.84;4944241;28;98879;-49
2022/07/17 08:34:53;;;;;;;1.87;0.70;;;;;;;20.68;47.35;102556.84;4945148;28;97351;-50
2022/07/17 08:37:19;;;;;;;2.77;0.80;;;;;;;20.74;47.46;102555.53;4943552;28;96944;-51
2022/07/17 08:39:44;;;;;;;5.90;0.80;;;;;;;20.85;46.80;102557.50;4947876;28;96707;-50
2022/07/17 08:42:15;;;;;;;3.43;1.30;;;;;;;20.93;46.88;102552.84;4945088;28;97454;-49
2022/07/17 08:44:41;;;;;;;4.00;0.90;;;;;;;21.01;46.67;102558.69;4943175;28;97033;-50
2022/07/17 08:47:07;;;;;;;3.10;1.00;;;;;;;21.09;46.67;102554.06;4944400;28;98448;-50
2022/07/17 08:49:37;;;;;;;6.07;0.90;;;;;;;21.13;46.07;102548.94;4941983;28;97416;-50
2022/07/17 08:52:03;;;;;;;0.90;0.60;;;;;;;21.08;45.99;102544.88;4945233;28;97206;-49
2022/07/17 08:54:29;;;;;;;2.70;0.83;;;;;;;21.13;46.29;102546.13;4946308;28;97024;-50
2022/07/17 08:56:54;;;;;;;6.13;0.97;;;;;;;21.27;46.10;102551.38;4949725;28;97332;-50
2022/07/17 08:59:20;;;;;;;1.67;0.83;;;;;;;21.42;46.11;102543.34;4946281;28;97191;-50
2022/07/17 09:01:45;;;;;;;1.33;0.63;;;;;;;21.57;45.84;102552.13;4944792;28;98530;-50
2022/07/17 09:04:10;;;;;;;2.10;1.10;;;;;;;21.61;46.02;102547.00;4952552;28;96851;-50
2022/07/17 09:06:36;;;;;;;1.13;0.57;;;;;;;21.65;45.58;102553.06;4946234;28;97011;-50
2022/07/17 09:09:05;;;;;;;2.67;0.90;;;;;;;21.67;45.29;102561.69;4948521;28;96698;-50
2022/07/17 09:11:51;;;;;;;1.47;0.87;;;;;;;21.74;44.68;102559.59;4944020;28;98405;-50
2022/07/17 09:14:18;;;;;;;1.27;0.80;;;;;;;21.83;44.99;102560.03;4945697;28;97046;-51
2022/07/17 09:16:51;;;;;;;1.50;0.83;;;;;;;21.85;44.71;102557.47;4949457;28;97348;-51
2022/07/17 09:19:31;;;;;;;4.13;0.90;;;;;;;22.05;44.59;102557.00;4946629;28;97522;-50
2022/07/17 09:22:14;;;;;;;2.63;0.77;;;;;;;22.23;44.26;102552.72;4948523;28;97090;-50
2022/07/17 09:25:00;;;;;;;4.90;0.70;;;;;;;22.41;44.16;102546.34;4947192;28;97243;-51
2022/07/17 09:27:25;;;;;;;2.27;0.83;;;;;;;22.56;44.33;102557.91;4948166;28;96896;-50
2022/07/17 09:29:58;;;;;;;1.90;0.90;;;;;;;22.66;43.85;102552.69;4947438;28;97207;-50
2022/07/17 09:32:25;;;;;;;2.00;0.90;;;;;;;22.73;43.83;102554.88;4944560;28;102375;-49
2022/07/17 09:34:54;;;;;;;1.43;0.80;;;;;;;22.72;43.84;102550.53;4944781;28;97581;-50
2022/07/17 09:37:22;;;;;;;1.83;1.00;;;;;;;22.70;43.77;102555.94;4943446;28;96831;-50
2022/07/17 09:39:49;;;;;;;4.60;0.90;;;;;;;22.71;43.71;102563.84;4948298;28;97054;-50
2022/07/17 09:42:23;;;;;;;2.07;0.93;;;;;;;22.75;42.98;102557.91;4949370;28;98363;-50
2022/07/17 09:45:08;;;;;;;2.80;0.90;;;;;;;22.72;42.97;102545.69;4945824;28;96770;-49
2022/07/17 09:47:37;;;;;;;6.33;1.13;;;;;;;22.71;43.65;102555.41;4944831;28;98352;-50
2022/07/17 09:50:05;;;;;;;1.07;0.73;;;;;;;22.75;43.54;102555.88;4946974;28;98470;-49
2022/07/17 09:52:33;;;;;;;1.17;0.90;;;;;;;22.79;42.91;102555.56;4945433;28;97032;-51
2022/07/17 09:55:00;;;;;;;3.40;1.10;;;;;;;22.83;43.07;102550.38;4945775;28;98756;-50
2022/07/17 09:57:32;;;;;;;2.00;1.20;;;;;;;23.10;42.93;102541.53;4944085;28;97483;-50
2022/07/17 10:00:07;;;;;;;2.43;0.90;;;;;;;23.25;42.14;102537.47;4948745;28;97407;-50
2022/07/17 10:02:33;;;;;;;2.67;0.97;;;;;;;23.18;42.65;102549.31;4943132;28;97378;-50
2022/07/17 10:04:59;;;;;;;3.47;0.80;;;;;;;23.16;42.73;102543.50;4949096;28;96780;-50
2022/07/17 10:07:25;;;;;;;2.50;0.80;;;;;;;23.36;42.59;102540.88;4944846;28;97074;-50
2022/07/17 10:09:50;;;;;;;2.60;1.00;;;;;;;23.54;42.11;102537.25;4950041;28;97560;-50
2022/07/17 10:12:17;;;;;;;1.27;0.73;;;;;;;23.63;41.93;102541.69;4946683;28;97320;-50
2022/07/17 10:14:47;;;;;;;1.07;0.87;;;;;;;23.66;41.25;102544.16;4946888;28;97165;-48
2022/07/17 10:17:13;;;;;;;3.03;1.00;;;;;;;23.58;41.75;102536.91;4940299;28;96927;-50
2022/07/17 10:19:53;;;;;;;1.63;0.87;;;;;;;23.52;41.21;102542.66;4945650;28;96862;-50
2022/07/17 10:22:18;;;;;;;2.87;1.00;;;;;;;23.38;41.79;102552.34;4944586;28;97174;-51
2022/07/17 10:24:49;;;;;;;4.10;1.03;;;;;;;23.42;41.89;102544.34;4944270;28;96858;-50
2022/07/17 10:27:20;;;;;;;1.10;0.73;;;;;;;23.60;41.16;102540.72;4946047;28;96638;-51
2022/07/17 10:29:46;;;;;;;1.10;0.60;;;;;;;23.69;41.28;102548.72;4947871;28;97469;-49
2022/07/17 10:32:18;;;;;;;3.97;1.27;;;;;;;23.80;41.04;102540.09;4945929;28;101639;-49
2022/07/17 10:35:04;;;;;;;1.37;0.77;;;;;;;23.91;41.24;102539.09;4945286;28;97266;-50
2022/07/17 10:37:40;;;;;;;2.30;0.83;;;;;;;24.09;40.53;102540.31;4943742;28;97318;-50
2022/07/17 10:40:06;;;;;;;1.00;0.63;;;;;;;24.21;40.95;102533.16;4948054;28;96801;-48
2022/07/17 10:42:45;;;;;;;1.13;0.90;;;;;;;24.21;40.08;102533.16;4942357;28;96980;-50
2022/07/17 10:45:13;;;;;;;2.57;0.90;;;;;;;24.17;40.77;102532.72;4941955;28;97056;-49
2022/07/17 10:47:52;;;;;;;2.43;1.40;;;;;;;24.21;39.69;102535.97;4945691;28;96909;-50
2022/07/17 10:50:24;;;;;;;0.90;0.63;;;;;;;24.29;40.57;102537.56;4946109;28;97692;-50
2022/07/17 10:53:03;;;;;;;2.00;1.00;;;;;;;24.52;40.38;102530.19;4945366;28;97200;-50
2022/07/17 10:55:30;;;;;;;1.43;1.00;;;;;;;24.70;40.09;102527.72;4942650;28;96845;-50
2022/07/17 10:57:56;;;;;;;1.30;0.80;;;;;;;24.84;39.77;102527.16;4945264;28;96793;-50
2022/07/17 11:00:22;;;;;;;2.57;0.97;;;;;;;24.86;39.62;102518.91;4945498;28;98162;-50
2022/07/17 11:02:47;;;;;;;1.77;0.60;;;;;;;24.90;39.58;102521.41;4948208;28;97340;-50
2022/07/17 11:05:14;;;;;;;2.47;0.80;;;;;;;24.94;39.30;102519.75;4939237;28;97108;-50
2022/07/17 11:07:59;;;;;;;3.33;0.70;;;;;;;24.99;39.27;102526.53;4945072;28;97027;-49
2022/07/17 11:10:26;;;;;;;2.77;0.83;;;;;;;25.04;39.60;102515.16;4942687;28;100619;-50
2022/07/17 11:13:06;;;;;;;5.50;1.07;;;;;;;25.04;38.81;102515.16;4943000;28;97097;-50
2022/07/17 11:15:41;;;;;;;1.63;0.77;;;;;;;25.04;38.62;102520.00;4942447;28;98558;-50
2022/07/17 11:18:16;;;;;;;2.47;0.90;;;;;;;25.10;39.00;102515.75;4946323;28;97667;-50
2022/07/17 11:20:48;;;;;;;2.97;0.90;;;;;;;25.21;38.77;102517.53;4944333;28;96798;-49
2022/07/17 11:23:13;;;;;;;1.60;0.90;;;;;;;25.29;38.70;102521.91;4943861;28;97020;-50